createdAt,value
2018-06-28T00:00:39.638Z,15.51
2018-06-28T00:03:08.156Z,15.45
2018-06-28T00:05:36.678Z,15.37
2018-06-28T00:08:05.382Z,15.38
2018-06-28T00:10:33.894Z,15.43
2018-06-28T00:13:02.582Z,15.47
2018-06-28T00:15:31.144Z,15.55
2018-06-28T00:17:59.692Z,15.49
2018-06-28T00:20:28.257Z,15.39
2018-06-28T00:22:56.704Z,15.36
2018-06-28T00:25:25.290Z,15.42
2018-06-28T00:27:53.748Z,15.48
2018-06-28T00:30:22.290Z,15.52
2018-06-28T00:32:50.709Z,15.53
2018-06-28T00:35:19.209Z,15.56
2018-06-28T00:37:47.681Z,15.60
2018-06-28T00:40:16.190Z,15.62
2018-06-28T00:42:44.620Z,15.66
2018-06-28T00:45:13.154Z,15.65
2018-06-28T00:47:42.148Z,15.66
2018-06-28T00:50:10.629Z,15.65
2018-06-28T00:52:39.201Z,15.64
2018-06-28T00:55:07.704Z,15.59
2018-06-28T00:57:36.174Z,15.59
2018-06-28T01:00:05.090Z,15.60
2018-06-28T01:02:33.538Z,15.58
2018-06-28T01:05:02.088Z,15.54
2018-06-28T01:07:30.599Z,15.49
2018-06-28T01:09:59.211Z,15.39
2018-06-28T01:12:27.717Z,15.35
2018-06-28T01:14:56.297Z,15.35
2018-06-28T01:17:24.836Z,15.33
2018-06-28T01:19:53.329Z,15.31
2018-06-28T01:22:21.810Z,15.29
2018-06-28T01:24:50.335Z,15.27
2018-06-28T01:27:18.880Z,15.23
2018-06-28T01:29:47.330Z,15.19
2018-06-28T01:32:15.729Z,15.18
2018-06-28T01:34:44.173Z,15.14
2018-06-28T01:37:12.685Z,15.11
2018-06-28T01:39:41.184Z,15.09
2018-06-28T01:42:21.776Z,15.06
2018-06-28T01:44:50.262Z,15.02
2018-06-28T01:47:18.817Z,14.96
2018-06-28T01:49:47.287Z,14.89
2018-06-28T01:52:15.777Z,14.88
2018-06-28T01:54:44.249Z,14.91
2018-06-28T01:57:12.736Z,14.90
2018-06-28T01:59:41.260Z,14.88
2018-06-28T02:02:09.805Z,14.90
2018-06-28T02:04:38.265Z,14.89
2018-06-28T02:07:06.773Z,14.85
2018-06-28T02:09:35.225Z,14.84
2018-06-28T02:12:03.757Z,14.85
2018-06-28T02:14:32.195Z,14.83
2018-06-28T02:17:00.688Z,14.78
2018-06-28T02:19:29.145Z,14.78
2018-06-28T02:21:57.689Z,14.76
2018-06-28T02:24:26.125Z,14.72
2018-06-28T02:26:54.613Z,14.71
2018-06-28T02:29:24.031Z,14.69
2018-06-28T02:31:52.500Z,14.67
2018-06-28T02:34:20.986Z,14.65
2018-06-28T02:36:49.408Z,14.66
2018-06-28T02:39:17.960Z,14.64
2018-06-28T02:41:46.409Z,14.61
2018-06-28T02:44:14.905Z,14.63
2018-06-28T02:46:43.440Z,14.59
2018-06-28T02:49:11.840Z,14.53
2018-06-28T02:51:40.557Z,14.53
2018-06-28T02:54:09.453Z,14.53
2018-06-28T02:56:37.928Z,14.54
2018-06-28T02:59:06.400Z,14.52
2018-06-28T03:01:35.239Z,14.53
2018-06-28T03:04:03.792Z,14.52
2018-06-28T03:06:32.275Z,14.53
2018-06-28T03:09:00.789Z,14.49
2018-06-28T03:11:29.225Z,14.52
2018-06-28T03:13:57.815Z,14.52
2018-06-28T03:16:26.223Z,14.47
2018-06-28T03:18:54.718Z,14.46
2018-06-28T03:21:23.161Z,14.44
2018-06-28T03:23:51.844Z,14.46
2018-06-28T03:26:20.339Z,14.49
2018-06-28T03:28:48.818Z,14.49
2018-06-28T03:31:17.309Z,14.49
2018-06-28T03:33:45.719Z,14.51
2018-06-28T03:36:15.163Z,14.54
2018-06-28T03:38:43.692Z,14.54
2018-06-28T03:41:12.172Z,14.55
2018-06-28T03:43:40.585Z,14.58
2018-06-28T03:46:09.134Z,14.56
2018-06-28T03:48:37.573Z,14.60
2018-06-28T03:51:14.392Z,14.63
2018-06-28T03:53:42.852Z,14.66
2018-06-28T03:56:11.238Z,14.65
2018-06-28T03:59:01.409Z,14.67
2018-06-28T04:01:29.919Z,14.71
2018-06-28T04:03:58.884Z,14.74
2018-06-28T04:06:27.614Z,14.77
2018-06-28T04:08:56.410Z,14.77
2018-06-28T04:11:25.092Z,14.80
2018-06-28T04:13:53.631Z,14.86
2018-06-28T04:16:22.107Z,14.88
2018-06-28T04:18:50.537Z,14.91
2018-06-28T04:21:19.113Z,15.00
2018-06-28T04:23:47.681Z,15.85
2018-06-28T04:26:16.100Z,16.93
2018-06-28T04:28:44.607Z,17.62
2018-06-28T04:31:13.106Z,18.21
2018-06-28T04:33:41.587Z,18.73
2018-06-28T04:36:10.171Z,19.10
2018-06-28T04:38:38.809Z,19.39
2018-06-28T04:41:07.438Z,19.80
2018-06-28T04:43:35.919Z,19.45
2018-06-28T04:46:04.412Z,18.63
2018-06-28T04:49:18.118Z,18.06
2018-06-28T04:51:46.628Z,17.60
2018-06-28T04:54:15.122Z,17.44
2018-06-28T04:56:43.604Z,17.32
2018-06-28T04:59:12.188Z,17.20
2018-06-28T05:01:40.719Z,17.12
2018-06-28T05:04:09.292Z,17.04
2018-06-28T05:09:03.602Z,17.07
2018-06-28T05:11:32.126Z,17.12
2018-06-28T05:14:00.606Z,17.18
2018-06-28T05:16:29.067Z,17.23
2018-06-28T05:18:57.525Z,17.24
2018-06-28T05:21:26.037Z,17.30
2018-06-28T05:24:20.750Z,17.37
2018-06-28T05:26:49.230Z,17.46
2018-06-28T05:29:17.811Z,17.50
2018-06-28T05:31:46.283Z,17.54
2018-06-28T05:34:14.793Z,17.63
2018-06-28T05:36:43.229Z,17.72
2018-06-28T05:39:12.261Z,17.83
2018-06-28T05:41:40.716Z,17.94
2018-06-28T05:44:09.230Z,18.02
2018-06-28T05:46:37.752Z,18.08
2018-06-28T05:49:06.304Z,18.17
2018-06-28T05:51:34.778Z,18.27
2018-06-28T05:54:03.284Z,18.34
2018-06-28T05:56:31.844Z,18.45
2018-06-28T05:59:00.325Z,18.52
2018-06-28T06:01:28.962Z,18.61
2018-06-28T06:03:57.589Z,18.67
2018-06-28T06:06:26.195Z,18.79
2018-06-28T06:08:54.856Z,18.88
2018-06-28T06:11:23.360Z,18.97
2018-06-28T06:13:51.813Z,19.06
2018-06-28T06:16:20.896Z,19.15
2018-06-28T06:18:49.310Z,19.22
2018-06-28T06:21:17.853Z,19.27
2018-06-28T06:23:46.461Z,19.33
2018-06-28T06:26:14.950Z,19.41
2018-06-28T06:28:43.432Z,19.47
2018-06-28T06:31:11.942Z,19.53
2018-06-28T06:33:40.386Z,19.62
2018-06-28T06:36:08.877Z,19.69
2018-06-28T06:38:37.901Z,19.70
2018-06-28T06:41:06.957Z,19.72
2018-06-28T06:43:35.461Z,19.78
2018-06-28T06:46:03.964Z,19.87
2018-06-28T06:48:32.368Z,19.87
2018-06-28T06:51:00.894Z,19.89
2018-06-28T06:53:29.467Z,19.99
2018-06-28T06:55:57.909Z,20.03
2018-06-28T06:58:26.404Z,20.07
2018-06-28T07:00:54.927Z,20.07
2018-06-28T07:03:23.410Z,20.06
2018-06-28T07:05:51.980Z,20.20
2018-06-28T07:08:20.906Z,20.35
2018-06-28T07:10:49.720Z,20.43
2018-06-28T07:13:18.290Z,20.48
2018-06-28T07:15:46.730Z,20.50
2018-06-28T07:18:15.208Z,20.54
2018-06-28T07:20:43.698Z,20.68
2018-06-28T07:23:12.253Z,20.82
2018-06-28T07:25:40.884Z,20.94
2018-06-28T07:28:09.456Z,20.97
2018-06-28T07:30:37.928Z,21.05
2018-06-28T07:33:06.890Z,21.16
2018-06-28T07:35:35.406Z,21.23
2018-06-28T07:38:03.865Z,21.25
2018-06-28T07:40:32.421Z,21.45
2018-06-28T07:43:00.935Z,21.58
2018-06-28T07:45:29.346Z,21.64
2018-06-28T07:47:57.811Z,21.80
2018-06-28T07:50:26.329Z,21.76
2018-06-28T07:52:54.975Z,21.77
2018-06-28T07:55:23.487Z,21.87
2018-06-28T07:57:51.940Z,21.94
2018-06-28T08:00:20.394Z,21.95
2018-06-28T08:02:48.925Z,22.09
2018-06-28T08:05:17.349Z,22.18
2018-06-28T08:08:16.501Z,22.26
2018-06-28T08:10:45.115Z,22.21
2018-06-28T08:13:17.153Z,22.29
2018-06-28T08:15:45.641Z,22.37
2018-06-28T08:18:14.094Z,22.45
2018-06-28T08:20:42.726Z,22.59
2018-06-28T08:23:11.215Z,22.65
2018-06-28T08:25:39.763Z,22.80
2018-06-28T08:28:08.339Z,22.88
2018-06-28T08:30:36.813Z,23.02
2018-06-28T08:33:05.546Z,23.14
2018-06-28T08:35:33.960Z,23.20
2018-06-28T08:38:02.468Z,23.28
2018-06-28T08:40:30.902Z,23.42
2018-06-28T08:42:59.361Z,23.44
2018-06-28T08:45:27.922Z,23.52
2018-06-28T08:47:56.345Z,23.59
2018-06-28T08:50:24.925Z,23.60
2018-06-28T08:52:53.468Z,23.67
2018-06-28T08:55:22.133Z,23.75
2018-06-28T08:57:50.705Z,23.87
2018-06-28T09:00:19.278Z,23.96
2018-06-28T09:02:47.784Z,24.02
2018-06-28T09:05:16.285Z,24.01
2018-06-28T09:07:44.745Z,24.12
2018-06-28T09:10:13.237Z,24.20
2018-06-28T09:12:41.721Z,24.22
2018-06-28T09:15:10.398Z,24.35
2018-06-28T09:17:38.885Z,24.38
2018-06-28T09:20:07.602Z,24.49
2018-06-28T09:22:36.422Z,24.59
2018-06-28T09:25:05.254Z,24.66
2018-06-28T09:27:33.814Z,24.73
2018-06-28T09:30:02.330Z,24.74
2018-06-28T09:32:30.805Z,24.85
2018-06-28T09:34:59.315Z,24.88
2018-06-28T09:37:28.010Z,24.98
2018-06-28T09:39:56.652Z,25.11
2018-06-28T09:42:25.227Z,25.24
2018-06-28T09:44:53.820Z,25.34
2018-06-28T09:47:22.296Z,25.38
2018-06-28T09:49:50.825Z,25.48
2018-06-28T09:52:19.413Z,25.51
2018-06-28T09:54:48.058Z,25.54
2018-06-28T09:57:16.627Z,25.64
2018-06-28T09:59:45.120Z,25.74
2018-06-28T10:02:13.601Z,25.74
2018-06-28T10:04:42.028Z,25.90
2018-06-28T10:07:10.588Z,26.00
2018-06-28T10:09:39.343Z,26.13
2018-06-28T10:12:07.885Z,26.30
2018-06-28T10:14:36.535Z,26.47
2018-06-28T10:17:05.013Z,26.57
2018-06-28T10:19:33.566Z,26.57
2018-06-28T10:22:02.080Z,26.59
2018-06-28T10:24:30.581Z,26.71
2018-06-28T10:26:59.034Z,26.80
2018-06-28T10:29:27.510Z,26.93
2018-06-28T10:31:56.788Z,26.99
2018-06-28T10:34:25.301Z,27.09
2018-06-28T10:36:53.902Z,27.12
2018-06-28T10:39:22.439Z,27.33
2018-06-28T10:41:50.902Z,27.52
2018-06-28T10:44:19.410Z,27.44
2018-06-28T10:46:47.899Z,27.33
2018-06-28T10:49:16.485Z,27.37
2018-06-28T10:51:44.951Z,27.57
2018-06-28T10:54:13.487Z,27.64
2018-06-28T10:56:42.050Z,27.76
2018-06-28T10:59:10.603Z,27.82
2018-06-28T11:01:39.309Z,27.95
2018-06-28T11:04:07.873Z,28.25
2018-06-28T11:06:36.341Z,28.54
2018-06-28T11:09:08.024Z,28.55
2018-06-28T11:11:36.756Z,28.52
2018-06-28T11:14:05.220Z,28.62
2018-06-28T11:16:33.786Z,28.66
2018-06-28T11:19:02.245Z,29.05
2018-06-28T11:21:31.253Z,29.43
2018-06-28T11:23:59.690Z,29.93
2018-06-28T11:26:28.184Z,30.13
2018-06-28T11:28:56.690Z,30.21
2018-06-28T11:31:25.196Z,30.40
2018-06-28T11:33:54.028Z,30.43
2018-06-28T11:36:22.569Z,30.39
2018-06-28T11:38:51.373Z,30.87
2018-06-28T11:41:19.917Z,31.44
2018-06-28T11:43:48.529Z,31.90
2018-06-28T11:46:17.004Z,32.40
2018-06-28T11:49:00.552Z,32.56
2018-06-28T11:51:28.961Z,32.59
2018-06-28T11:53:57.441Z,31.79
2018-06-28T11:56:25.937Z,31.63
2018-06-28T11:58:54.352Z,31.27
2018-06-28T12:01:22.929Z,31.13
2018-06-28T12:03:51.500Z,31.64
2018-06-28T12:06:20.376Z,30.79
2018-06-28T12:08:49.930Z,29.94
2018-06-28T12:11:18.556Z,29.88
2018-06-28T12:13:47.051Z,30.62
2018-06-28T12:16:15.831Z,30.79
2018-06-28T12:18:44.363Z,31.41
2018-06-28T12:21:12.937Z,31.83
2018-06-28T12:23:41.505Z,32.40
2018-06-28T12:26:10.009Z,33.02
2018-06-28T12:28:38.524Z,33.65
2018-06-28T12:31:07.093Z,34.18
2018-06-28T12:33:35.614Z,34.34
2018-06-28T12:36:04.101Z,34.23
2018-06-28T12:38:33.105Z,34.09
2018-06-28T12:41:01.573Z,34.24
2018-06-28T12:43:30.877Z,34.37
2018-06-28T12:46:00.485Z,34.72
2018-06-28T12:48:29.065Z,34.98
2018-06-28T12:50:57.627Z,35.10
2018-06-28T12:53:26.120Z,35.33
2018-06-28T12:56:29.825Z,35.35
2018-06-28T12:58:59.843Z,35.08
2018-06-28T13:01:28.934Z,35.03
2018-06-28T13:03:57.737Z,33.48
2018-06-28T13:06:26.340Z,32.24
2018-06-28T13:08:55.617Z,31.39
2018-06-28T13:11:24.496Z,31.91
2018-06-28T13:13:53.280Z,33.03
2018-06-28T13:16:22.725Z,33.70
2018-06-28T13:18:51.342Z,34.13
2018-06-28T13:21:19.857Z,33.88
2018-06-28T13:23:48.394Z,34.10
2018-06-28T13:26:17.641Z,34.51
2018-06-28T13:28:46.425Z,34.59
2018-06-28T13:31:14.973Z,34.56
2018-06-28T13:33:43.602Z,33.95
2018-06-28T13:36:12.105Z,33.39
2018-06-28T13:38:40.664Z,32.89
2018-06-28T13:41:09.362Z,33.12
2018-06-28T13:43:37.719Z,33.32
2018-06-28T13:46:06.409Z,33.35
2018-06-28T13:48:34.905Z,33.49
2018-06-28T13:51:03.497Z,33.29
2018-06-28T13:53:32.087Z,33.54
2018-06-28T13:56:00.642Z,33.64
2018-06-28T13:58:29.078Z,33.21
2018-06-28T14:00:57.619Z,32.62
2018-06-28T14:03:26.177Z,31.78
2018-06-28T14:05:54.633Z,30.97
2018-06-28T14:08:23.048Z,30.40
2018-06-28T14:10:51.606Z,30.31
2018-06-28T14:13:20.126Z,30.76
2018-06-28T14:15:48.596Z,31.08
2018-06-28T14:18:17.108Z,31.39
2018-06-28T14:20:45.659Z,31.65
2018-06-28T14:23:14.101Z,31.88
2018-06-28T14:25:42.644Z,32.13
2018-06-28T14:28:11.428Z,32.23
2018-06-28T14:30:40.321Z,32.39
2018-06-28T14:33:08.860Z,32.40
2018-06-28T14:35:37.489Z,32.10
2018-06-28T14:38:06.259Z,31.88
2018-06-28T14:40:34.725Z,32.02
2018-06-28T14:43:03.660Z,32.11
2018-06-28T14:45:32.534Z,31.98
2018-06-28T14:48:01.403Z,31.88
2018-06-28T14:50:29.944Z,31.81
2018-06-28T14:52:58.456Z,31.65
2018-06-28T14:55:26.940Z,31.72
2018-06-28T14:57:55.467Z,31.67
2018-06-28T15:00:24.072Z,31.59
2018-06-28T15:02:52.629Z,31.38
2018-06-28T15:05:21.091Z,31.47
2018-06-28T15:07:49.687Z,31.59
2018-06-28T15:10:18.257Z,31.73
2018-06-28T15:12:46.833Z,31.88
2018-06-28T15:15:15.469Z,32.00
2018-06-28T15:17:43.944Z,32.27
2018-06-28T15:20:12.468Z,32.18
2018-06-28T15:22:41.054Z,31.51
2018-06-28T15:25:28.264Z,30.93
2018-06-28T15:27:56.757Z,30.27
2018-06-28T15:30:25.237Z,29.83
2018-06-28T15:32:53.715Z,30.18
2018-06-28T15:35:22.141Z,30.63
2018-06-28T15:37:50.661Z,31.03
2018-06-28T15:40:19.140Z,31.15
2018-06-28T15:42:47.648Z,31.41
2018-06-28T15:45:16.187Z,31.10
2018-06-28T15:47:44.633Z,30.48
2018-06-28T15:50:13.270Z,29.94
2018-06-28T15:52:41.757Z,29.44
2018-06-28T15:55:10.241Z,29.71
2018-06-28T15:57:38.717Z,30.12
2018-06-28T16:00:07.741Z,30.56
2018-06-28T16:02:36.298Z,30.77
2018-06-28T16:05:05.122Z,30.97
2018-06-28T16:07:33.861Z,30.57
2018-06-28T16:10:02.324Z,29.92
2018-06-28T16:12:30.741Z,29.37
2018-06-28T16:14:59.297Z,29.37
2018-06-28T16:17:31.149Z,29.66
2018-06-28T16:20:02.359Z,29.94
2018-06-28T16:22:31.363Z,30.18
2018-06-28T16:25:00.190Z,30.35
2018-06-28T16:27:28.772Z,30.41
2018-06-28T16:29:57.372Z,30.25
2018-06-28T16:32:25.865Z,30.29
2018-06-28T16:34:54.326Z,30.32
2018-06-28T16:37:22.779Z,30.19
2018-06-28T16:39:51.378Z,30.17
2018-06-28T16:42:19.932Z,30.16
2018-06-28T16:44:48.465Z,30.12
2018-06-28T16:47:16.945Z,30.09
2018-06-28T16:49:48.821Z,30.15
2018-06-28T16:52:17.385Z,30.23
2018-06-28T16:54:45.835Z,30.16
2018-06-28T16:57:14.284Z,30.01
2018-06-28T16:59:42.956Z,30.04
2018-06-28T17:02:11.276Z,30.02
2018-06-28T17:04:40.462Z,30.10
2018-06-28T17:07:09.046Z,30.01
2018-06-28T17:09:37.658Z,30.03
2018-06-28T17:12:06.341Z,30.00
2018-06-28T17:14:35.139Z,29.79
2018-06-28T17:17:03.675Z,29.54
2018-06-28T17:19:32.276Z,29.50
2018-06-28T17:22:01.031Z,29.48
2018-06-28T17:24:30.158Z,29.37
2018-06-28T17:26:59.103Z,29.25
2018-06-28T17:29:27.658Z,29.09
2018-06-28T17:31:56.261Z,28.57
2018-06-28T17:34:24.625Z,28.21
2018-06-28T17:36:53.109Z,28.09
2018-06-28T17:39:21.680Z,28.08
2018-06-28T17:41:50.155Z,28.17
2018-06-28T17:44:18.666Z,28.26
2018-06-28T17:46:47.122Z,28.34
2018-06-28T17:49:15.591Z,28.33
2018-06-28T17:51:44.762Z,28.30
2018-06-28T17:54:13.775Z,28.26
2018-06-28T17:56:42.333Z,28.21
2018-06-28T17:59:10.838Z,28.08
2018-06-28T18:01:39.257Z,27.94
2018-06-28T18:04:07.900Z,27.83
2018-06-28T18:06:36.567Z,27.69
2018-06-28T18:09:08.379Z,27.56
2018-06-28T18:11:37.275Z,27.43
2018-06-28T18:14:06.069Z,27.25
2018-06-28T18:16:47.722Z,27.14
2018-06-28T18:19:16.583Z,26.97
2018-06-28T18:21:45.117Z,26.85
2018-06-28T18:24:13.636Z,26.73
2018-06-28T18:26:42.074Z,26.63
2018-06-28T18:29:10.592Z,26.52
2018-06-28T18:31:39.259Z,26.42
2018-06-28T18:34:07.835Z,26.33
2018-06-28T18:36:36.346Z,26.22
2018-06-28T18:39:08.101Z,26.11
2018-06-28T18:41:37.179Z,26.03
2018-06-28T18:44:05.795Z,25.96
2018-06-28T18:46:34.604Z,25.89
2018-06-28T18:49:03.126Z,25.83
2018-06-28T18:51:31.684Z,25.72
2018-06-28T18:54:00.306Z,25.68
2018-06-28T18:56:28.925Z,25.62
2018-06-28T18:58:57.383Z,25.52
2018-06-28T19:01:26.043Z,25.44
2018-06-28T19:03:54.552Z,25.39
2018-06-28T19:06:23.258Z,25.31
2018-06-28T19:08:51.825Z,25.20
2018-06-28T19:11:20.582Z,25.10
2018-06-28T19:13:54.565Z,25.03
2018-06-28T19:16:29.529Z,24.97
2018-06-28T19:18:58.063Z,24.89
2018-06-28T19:21:32.526Z,24.83
2018-06-28T19:24:01.032Z,24.72
2018-06-28T19:26:29.677Z,24.61
2018-06-28T19:29:02.356Z,24.53
2018-06-28T19:31:36.072Z,24.42
2018-06-28T19:34:04.602Z,24.30
2018-06-28T19:36:33.144Z,24.18
2018-06-28T19:39:06.912Z,24.12
2018-06-28T19:41:40.618Z,24.03
2018-06-28T19:44:09.131Z,23.94
2018-06-28T19:46:37.743Z,23.86
2018-06-28T19:49:10.461Z,23.79
2018-06-28T19:51:44.069Z,23.71
2018-06-28T19:54:14.214Z,23.61
2018-06-28T19:56:43.734Z,23.53
2018-06-28T19:59:12.161Z,23.44
2018-06-28T20:01:46.127Z,23.35
2018-06-28T20:04:14.631Z,23.29
2018-06-28T20:06:44.335Z,23.26
2018-06-28T20:09:13.212Z,23.21
2018-06-28T20:11:41.727Z,23.15
2018-06-28T20:14:15.594Z,23.06
2018-06-28T20:17:48.436Z,22.98
2018-06-28T20:20:19.423Z,22.85
2018-06-28T20:22:48.052Z,22.80
2018-06-28T20:25:16.876Z,22.74
2018-06-28T20:27:50.743Z,22.66
2018-06-28T20:30:25.125Z,22.53
2018-06-28T20:32:58.944Z,22.35
2018-06-28T20:35:27.662Z,22.22
2018-06-28T20:37:56.510Z,22.12
2018-06-28T20:40:25.035Z,22.02
2018-06-28T20:42:53.594Z,22.00
2018-06-28T20:45:22.209Z,21.92
2018-06-28T20:47:50.766Z,21.90
2018-06-28T20:50:19.317Z,21.91
2018-06-28T20:52:47.862Z,21.81
2018-06-28T20:55:16.373Z,21.68
2018-06-28T20:57:44.981Z,21.68
2018-06-28T21:00:13.462Z,21.56
2018-06-28T21:02:42.760Z,21.42
2018-06-28T21:05:11.343Z,21.26
2018-06-28T21:07:39.849Z,21.17
2018-06-28T21:10:08.410Z,21.11
2018-06-28T21:12:36.955Z,20.93
2018-06-28T21:15:05.616Z,20.75
2018-06-28T21:17:34.068Z,20.62
2018-06-28T21:20:03.106Z,20.55
2018-06-28T21:22:31.565Z,20.51
2018-06-28T21:25:00.237Z,20.46
2018-06-28T21:27:28.765Z,20.36
2018-06-28T21:29:57.273Z,20.37
2018-06-28T21:32:25.794Z,20.44
2018-06-28T21:34:54.463Z,20.47
2018-06-28T21:37:23.164Z,20.44
2018-06-28T21:39:51.733Z,20.29
2018-06-28T21:42:20.329Z,20.30
2018-06-28T21:44:48.774Z,20.36
2018-06-28T21:47:17.492Z,20.39
2018-06-28T21:49:46.061Z,20.40
2018-06-28T21:52:14.516Z,20.43
2018-06-28T21:54:43.060Z,20.42
2018-06-28T21:57:12.432Z,20.38
2018-06-28T21:59:41.056Z,20.38
2018-06-28T22:02:09.533Z,20.35
2018-06-28T22:04:38.077Z,20.28
2018-06-28T22:07:06.689Z,20.24
2018-06-28T22:09:35.293Z,20.21
2018-06-28T22:12:03.881Z,20.20
2018-06-28T22:14:32.826Z,20.18
2018-06-28T22:17:02.357Z,20.18
2018-06-28T22:19:31.410Z,20.15
2018-06-28T22:22:00.512Z,20.13
2018-06-28T22:24:29.426Z,20.11
2018-06-28T22:26:58.067Z,20.09
2018-06-28T22:29:37.446Z,20.06
2018-06-28T22:32:06.233Z,20.01
2018-06-28T22:34:34.817Z,19.96
2018-06-28T22:37:03.349Z,19.94
2018-06-28T22:39:31.885Z,19.90
2018-06-28T22:42:26.194Z,19.88
2018-06-28T22:44:55.030Z,19.84
2018-06-28T22:47:23.547Z,19.81
2018-06-28T22:49:52.334Z,19.78
2018-06-28T22:52:20.918Z,19.78
2018-06-28T22:54:49.446Z,19.73
2018-06-28T22:57:18.229Z,19.67
2018-06-28T22:59:47.049Z,19.64
2018-06-28T23:02:16.199Z,19.63
2018-06-28T23:04:45.465Z,19.59
2018-06-28T23:07:17.665Z,19.52
2018-06-28T23:09:46.126Z,19.48
2018-06-28T23:12:14.664Z,19.41
2018-06-28T23:14:43.229Z,19.34
2018-06-28T23:17:11.867Z,19.31
2018-06-28T23:19:40.399Z,19.26
2018-06-28T23:22:12.619Z,19.21
2018-06-28T23:24:41.317Z,19.15
2018-06-28T23:27:09.780Z,19.02
2018-06-28T23:29:39.489Z,18.94
2018-06-28T23:32:08.019Z,18.80
2018-06-28T23:34:36.569Z,18.76
2018-06-28T23:37:05.680Z,18.76
2018-06-28T23:39:34.147Z,18.65
2018-06-28T23:42:02.731Z,18.52
2018-06-28T23:44:31.321Z,18.43
2018-06-28T23:47:01.352Z,18.32
2018-06-28T23:49:30.321Z,18.19
2018-06-28T23:51:58.905Z,18.10
2018-06-28T23:54:27.286Z,18.08
2018-06-28T23:56:55.766Z,18.08
2018-06-28T23:59:24.237Z,18.06
